Impacts METAR Board
IDs:

KBTR - Baton Rouge/Ryan Fld, LA, US

Updated at: 1000 UTC 16 Aug 2018
Potential Impact None Slight Moderate High
Time 15/22Z 15/23Z 16/00Z 16/01Z 16/02Z 16/03Z 16/04Z 16/05Z 16/06Z 16/07Z 16/08Z 16/09Z 16/10Z
Temp92 91 81 80 80 76 75 75 75 75 75 75 74
Dewpt76 73 68 71 70 72 73 73 73 73 73 73 73
Altim29.97 29.97 29.99 29.98 29.99 30.01 30.02 30.03 30.03 30.03 30.03 30.03 30.03
VIS6 5 10 10 10 10 8 8 7 7 6 5 5
CIG100 65 55 -- -- -- -- -- -- -- -- -- --
CoverBKNBKNBKNCLRCLRCLRFEWCLRSCTSCTCLRFEWFEW
FltCatVFRMVFRVFRVFRVFRVFRVFRVFRVFRVFRVFRMVFRMVFR
WXVCTS HZVCTS HZVCTS--------------BRBRBR
WDir31001501801808010060006000
WSpd6 3 14 7 3 5 3 4 0 0 3 0 0
WGst-- -- 21 -- -- -- -- -- -- -- -- -- --
Raw hourly METARs
KBTR 152153Z 31006KT 6SM VCTS HZ BKN100CB 33/24 A2997 RMK AO2 LTG DSNT E AND SE AND NW SLP146 T03330244
KBTR 152253Z VRB03KT 5SM VCTS HZ BKN065 33/23 A2997 RMK AO2 LTG DSNT SE-SW SLP148 T03280228
KBTR 152353Z 15014G21KT 10SM VCTS BKN055CB 27/20 A2999 RMK AO2 WSHFT 2257 LTG DSNT SE-SW SLP154 T02720200 10356 20267 53002
KBTR 160055Z 18007KT 10SM CLR 27/22 A2998 RMK AO2 T02670217
KBTR 160153Z 18003KT 10SM CLR 27/21 A2999 RMK AO2 SLP152 T02670211
KBTR 160253Z 08005KT 10SM CLR 24/22 A3001 RMK AO2 SLP161 T02440222 53007
KBTR 160353Z 10003KT 8SM FEW049 24/23 A3002 RMK AO2 SLP164 T02390228
KBTR 160453Z AUTO 06004KT 8SM CLR 24/23 A3003 RMK AO2 SLP166 T02390228
KBTR 160553Z AUTO 00000KT 7SM SCT060 24/23 A3003 RMK AO2 SLP166 T02390228 10272 20239 403560239 51005
KBTR 160653Z AUTO 00000KT 7SM SCT065 24/23 A3003 RMK AO2 SLP167 T02390228
KBTR 160753Z AUTO 06003KT 6SM BR CLR 24/23 A3003 RMK AO2 SLP166 T02390228
KBTR 160853Z AUTO 00000KT 5SM BR FEW060 24/23 A3003 RMK AO2 SLP168 T02390228 53001
KBTR 160953Z 00000KT 5SM BR FEW050 23/23 A3003 RMK AO2 SLP168 T02330228



Page loaded:  10:26 UTC  |   03:26 AM Pacific  |   04:26 AM Mountain  |   05:26 AM Central  |   06:26 AM Eastern

 

ADVISORIES

FORECASTS

FORECASTS

OBSERVATIONS

USER TOOLS

ABOUT US